createdAt,value
2018-10-16T16:15:38.485Z,21.40
2018-10-16T16:18:07.065Z,21.30
2018-10-16T16:20:35.533Z,21.10
2018-10-16T16:23:03.985Z,21.10
2018-10-16T16:25:32.420Z,21.00
2018-10-16T16:28:00.889Z,20.90
2018-10-16T16:30:29.318Z,20.80
2018-10-16T16:32:57.759Z,20.80
2018-10-16T16:35:26.193Z,20.70
2018-10-16T16:37:54.654Z,20.60
2018-10-16T16:40:23.097Z,20.50
2018-10-16T16:42:51.522Z,20.40
2018-10-16T16:45:19.975Z,20.30
2018-10-16T16:47:48.436Z,20.20
2018-10-16T16:50:16.870Z,20.20
2018-10-16T16:52:45.306Z,20.10
2018-10-16T16:55:15.361Z,20.00
2018-10-16T16:57:44.258Z,19.90
2018-10-16T17:00:13.970Z,19.80
2018-10-16T17:02:43.768Z,19.70
2018-10-16T17:05:12.738Z,19.60
2018-10-16T17:07:41.849Z,19.50
2018-10-16T17:10:10.359Z,19.40
2018-10-16T17:12:39.653Z,19.40
2018-10-16T17:15:10.009Z,19.30
2018-10-16T17:17:38.562Z,19.20
2018-10-16T17:20:07.678Z,19.10
2018-10-16T17:22:36.291Z,19.00
2018-10-16T17:25:05.133Z,18.90
2018-10-16T17:27:33.548Z,18.80
2018-10-16T17:30:02.028Z,18.70
2018-10-16T17:32:30.434Z,18.50
2018-10-16T17:34:58.860Z,18.40
2018-10-16T17:37:27.298Z,18.30
2018-10-16T17:39:55.705Z,18.30
2018-10-16T17:42:24.279Z,18.20
2018-10-16T17:44:52.699Z,18.10
2018-10-16T17:47:21.182Z,18.00
2018-10-16T17:49:49.681Z,18.00
2018-10-16T17:52:18.140Z,18.00
2018-10-16T17:54:46.617Z,17.90
2018-10-16T17:57:15.070Z,17.90
2018-10-16T17:59:43.661Z,17.80
2018-10-16T18:02:12.090Z,17.80
2018-10-16T18:04:40.698Z,17.80
2018-10-16T18:07:09.111Z,17.60
2018-10-16T18:09:38.193Z,17.60
2018-10-16T18:12:06.957Z,17.50
2018-10-16T18:14:35.646Z,17.40
2018-10-16T18:17:04.707Z,17.30
2018-10-16T18:19:34.041Z,17.30
2018-10-16T18:22:02.659Z,17.10
2018-10-16T18:24:31.200Z,17.20
2018-10-16T18:26:59.919Z,17.20
2018-10-16T18:29:29.356Z,17.10
2018-10-16T18:31:57.975Z,17.00
2018-10-16T18:34:27.749Z,16.90
2018-10-16T18:36:56.276Z,16.90
2018-10-16T18:39:25.749Z,16.80
2018-10-16T18:41:54.332Z,16.80
2018-10-16T18:44:22.924Z,17.00
2018-10-16T18:46:51.482Z,17.00
2018-10-16T18:49:20.099Z,17.10
2018-10-16T18:51:48.880Z,17.10
2018-10-16T18:54:17.421Z,17.00
2018-10-16T18:56:45.981Z,17.00
2018-10-16T18:59:14.473Z,17.00
2018-10-16T19:01:43.306Z,16.90
2018-10-16T19:04:11.866Z,16.70
2018-10-16T19:06:40.777Z,16.70
2018-10-16T19:09:11.284Z,16.60
2018-10-16T19:11:39.975Z,16.50
2018-10-16T19:14:08.509Z,16.50
2018-10-16T19:16:37.730Z,16.50
2018-10-16T19:19:06.422Z,16.40
2018-10-16T19:21:34.958Z,16.30
2018-10-16T19:24:04.923Z,16.30
2018-10-16T19:26:33.458Z,16.20
2018-10-16T19:29:02.143Z,16.20
2018-10-16T19:31:30.609Z,16.10
2018-10-16T19:33:59.173Z,16.00
2018-10-16T19:36:27.818Z,16.00
2018-10-16T19:38:56.344Z,15.90
2018-10-16T19:41:24.877Z,15.80
2018-10-16T19:43:53.300Z,15.70
2018-10-16T19:46:21.728Z,15.60
2018-10-16T19:48:50.182Z,15.60
2018-10-16T19:51:18.658Z,15.60
2018-10-16T19:53:47.414Z,15.50
2018-10-16T19:56:15.864Z,15.50
2018-10-16T19:58:44.309Z,15.40
2018-10-16T20:01:12.786Z,15.30
2018-10-16T20:03:41.263Z,15.30
2018-10-16T20:06:09.758Z,15.30
2018-10-16T20:08:38.603Z,15.20
2018-10-16T20:11:07.134Z,15.20
2018-10-16T20:13:35.668Z,15.10
2018-10-16T20:16:04.134Z,15.10
2018-10-16T20:18:32.811Z,15.00
2018-10-16T20:21:01.271Z,14.90
2018-10-16T20:23:29.713Z,15.00
2018-10-16T20:25:58.180Z,14.90
2018-10-16T20:28:26.625Z,14.90
2018-10-16T20:30:55.172Z,14.80
2018-10-16T20:33:23.785Z,14.70
2018-10-16T20:35:52.263Z,14.70
2018-10-16T20:38:20.718Z,14.70
2018-10-16T20:40:49.234Z,14.60
2018-10-16T20:43:17.735Z,14.60
2018-10-16T20:45:46.121Z,14.60
2018-10-16T20:48:14.569Z,14.50
2018-10-16T20:50:43.016Z,14.50
2018-10-16T20:53:11.453Z,14.50
2018-10-16T20:55:39.929Z,14.40
2018-10-16T20:58:08.407Z,14.40
2018-10-16T21:00:37.266Z,14.30
2018-10-16T21:03:05.701Z,14.20
2018-10-16T21:05:34.287Z,14.20
2018-10-16T21:08:02.679Z,14.20
2018-10-16T21:10:31.169Z,14.20
2018-10-16T21:12:59.670Z,14.20
2018-10-16T21:15:28.052Z,14.10
2018-10-16T21:17:56.505Z,14.10
2018-10-16T21:20:24.948Z,14.00
2018-10-16T21:22:53.445Z,14.00
2018-10-16T21:25:21.868Z,13.90
2018-10-16T21:27:50.325Z,14.00
2018-10-16T21:30:18.792Z,14.00
2018-10-16T21:32:47.225Z,14.00
2018-10-16T21:35:15.744Z,14.00
2018-10-16T21:37:44.198Z,14.00
2018-10-16T21:40:12.609Z,14.00
2018-10-16T21:42:41.117Z,14.00
2018-10-16T21:45:09.572Z,14.00
2018-10-16T21:47:37.996Z,14.00
2018-10-16T21:50:06.679Z,14.00
2018-10-16T21:52:35.112Z,14.00
2018-10-16T21:55:03.640Z,13.90
2018-10-16T21:57:32.056Z,13.90
2018-10-16T22:00:00.554Z,13.90
2018-10-16T22:02:34.461Z,13.80
2018-10-16T22:05:03.089Z,13.80
2018-10-16T22:07:31.578Z,13.80
2018-10-16T22:10:00.026Z,13.80
2018-10-16T22:12:28.439Z,13.80
2018-10-16T22:14:56.885Z,13.70
2018-10-16T22:17:25.369Z,13.70
2018-10-16T22:19:53.793Z,13.60
2018-10-16T22:22:22.229Z,13.40
2018-10-16T22:24:50.692Z,13.20
2018-10-16T22:27:19.137Z,13.20
2018-10-16T22:29:47.557Z,13.20
2018-10-16T22:32:16.004Z,13.20
2018-10-16T22:34:44.424Z,13.30
2018-10-16T22:37:12.882Z,13.20
2018-10-16T22:39:41.296Z,13.30
2018-10-16T22:42:09.730Z,13.30
2018-10-16T22:44:38.165Z,13.30
2018-10-16T22:47:06.694Z,13.30
2018-10-16T22:49:35.081Z,13.20
2018-10-16T22:52:03.597Z,13.20
2018-10-16T22:54:32.092Z,13.20
2018-10-16T22:57:00.580Z,13.20
2018-10-16T22:59:29.021Z,13.20
2018-10-16T23:01:57.582Z,13.20
2018-10-16T23:04:26.020Z,13.20
2018-10-16T23:06:54.465Z,13.20
2018-10-16T23:09:22.916Z,13.20
2018-10-16T23:11:51.346Z,13.20
2018-10-16T23:14:19.781Z,13.20
2018-10-16T23:16:48.197Z,13.20
2018-10-16T23:19:16.772Z,13.10
2018-10-16T23:21:45.112Z,13.10
2018-10-16T23:24:13.549Z,13.10
2018-10-16T23:26:41.993Z,13.10
2018-10-16T23:29:10.534Z,13.00
2018-10-16T23:31:38.945Z,12.90
2018-10-16T23:34:07.917Z,12.90
2018-10-16T23:36:36.388Z,12.90
2018-10-16T23:39:09.189Z,12.90
2018-10-16T23:41:38.297Z,12.90
2018-10-16T23:44:06.734Z,13.00
2018-10-16T23:46:35.215Z,12.90
2018-10-16T23:49:03.690Z,12.90
2018-10-16T23:51:32.148Z,12.90
2018-10-16T23:54:00.617Z,12.90
2018-10-16T23:56:35.688Z,12.80
2018-10-16T23:59:04.352Z,12.70
